sensor_id;sensor_type;location;lat;lon;timestamp;P1;durP1;ratioP1;P2;durP2;ratioP2
21822;SDS011;11074;48.596;9.238;2023-07-29T00:01:41;2.80;;;1.58;;
21822;SDS011;11074;48.596;9.238;2023-07-29T00:04:07;4.13;;;2.22;;
21822;SDS011;11074;48.596;9.238;2023-07-29T00:06:34;3.42;;;1.75;;
21822;SDS011;11074;48.596;9.238;2023-07-29T00:09:00;3.78;;;1.60;;
21822;SDS011;11074;48.596;9.238;2023-07-29T00:11:27;6.32;;;2.00;;
21822;SDS011;11074;48.596;9.238;2023-07-29T00:13:53;2.85;;;1.60;;
21822;SDS011;11074;48.596;9.238;2023-07-29T00:16:19;5.13;;;1.75;;
21822;SDS011;11074;48.596;9.238;2023-07-29T00:18:48;5.88;;;1.70;;
21822;SDS011;11074;48.596;9.238;2023-07-29T00:21:14;4.50;;;1.58;;
21822;SDS011;11074;48.596;9.238;2023-07-29T00:23:40;4.30;;;1.60;;
21822;SDS011;11074;48.596;9.238;2023-07-29T00:26:06;6.80;;;1.65;;
21822;SDS011;11074;48.596;9.238;2023-07-29T00:28:31;5.32;;;1.60;;
21822;SDS011;11074;48.596;9.238;2023-07-29T00:30:57;4.60;;;1.75;;
21822;SDS011;11074;48.596;9.238;2023-07-29T00:33:23;2.47;;;1.60;;
21822;SDS011;11074;48.596;9.238;2023-07-29T00:35:48;3.75;;;1.65;;
21822;SDS011;11074;48.596;9.238;2023-07-29T00:38:14;3.00;;;1.73;;
21822;SDS011;11074;48.596;9.238;2023-07-29T00:40:40;3.47;;;1.70;;
21822;SDS011;11074;48.596;9.238;2023-07-29T00:43:05;4.30;;;1.80;;
21822;SDS011;11074;48.596;9.238;2023-07-29T00:45:31;2.92;;;1.70;;
21822;SDS011;11074;48.596;9.238;2023-07-29T00:47:58;3.83;;;1.35;;
21822;SDS011;11074;48.596;9.238;2023-07-29T00:50:25;7.68;;;1.65;;
21822;SDS011;11074;48.596;9.238;2023-07-29T00:52:53;4.75;;;1.42;;
21822;SDS011;11074;48.596;9.238;2023-07-29T00:55:20;4.20;;;1.55;;
21822;SDS011;11074;48.596;9.238;2023-07-29T00:57:45;6.55;;;1.73;;
21822;SDS011;11074;48.596;9.238;2023-07-29T01:00:13;3.83;;;1.65;;
21822;SDS011;11074;48.596;9.238;2023-07-29T01:02:44;8.13;;;1.60;;
21822;SDS011;11074;48.596;9.238;2023-07-29T01:05:11;2.35;;;1.52;;
21822;SDS011;11074;48.596;9.238;2023-07-29T01:07:58;4.35;;;1.60;;
21822;SDS011;11074;48.596;9.238;2023-07-29T01:10:50;2.08;;;1.30;;
21822;SDS011;11074;48.596;9.238;2023-07-29T01:16:46;2.53;;;1.45;;
21822;SDS011;11074;48.596;9.238;2023-07-29T01:20:06;4.45;;;1.48;;
21822;SDS011;11074;48.596;9.238;2023-07-29T01:22:30;1.90;;;1.33;;
21822;SDS011;11074;48.596;9.238;2023-07-29T01:24:58;1.73;;;1.30;;
21822;SDS011;11074;48.596;9.238;2023-07-29T01:27:25;2.25;;;1.40;;
21822;SDS011;11074;48.596;9.238;2023-07-29T01:29:51;2.08;;;1.40;;
21822;SDS011;11074;48.596;9.238;2023-07-29T01:35:24;1.80;;;1.40;;
21822;SDS011;11074;48.596;9.238;2023-07-29T01:38:13;2.25;;;1.42;;
21822;SDS011;11074;48.596;9.238;2023-07-29T01:40:46;1.98;;;1.30;;
21822;SDS011;11074;48.596;9.238;2023-07-29T01:43:16;2.30;;;1.20;;
21822;SDS011;11074;48.596;9.238;2023-07-29T01:45:43;1.40;;;1.25;;
21822;SDS011;11074;48.596;9.238;2023-07-29T01:48:09;1.67;;;1.27;;
21822;SDS011;11074;48.596;9.238;2023-07-29T01:50:35;3.17;;;1.20;;
21822;SDS011;11074;48.596;9.238;2023-07-29T01:53:01;2.92;;;1.40;;
21822;SDS011;11074;48.596;9.238;2023-07-29T01:55:26;3.92;;;1.35;;
21822;SDS011;11074;48.596;9.238;2023-07-29T01:57:52;1.73;;;1.23;;
21822;SDS011;11074;48.596;9.238;2023-07-29T02:00:18;2.08;;;1.42;;
21822;SDS011;11074;48.596;9.238;2023-07-29T02:02:44;1.80;;;1.30;;
21822;SDS011;11074;48.596;9.238;2023-07-29T02:05:10;2.25;;;1.35;;
21822;SDS011;11074;48.596;9.238;2023-07-29T02:07:36;1.40;;;1.20;;
21822;SDS011;11074;48.596;9.238;2023-07-29T02:10:01;2.30;;;1.63;;
21822;SDS011;11074;48.596;9.238;2023-07-29T02:12:27;1.83;;;1.30;;
21822;SDS011;11074;48.596;9.238;2023-07-29T02:14:53;2.05;;;1.27;;
21822;SDS011;11074;48.596;9.238;2023-07-29T02:17:19;1.73;;;1.50;;
21822;SDS011;11074;48.596;9.238;2023-07-29T02:19:44;3.33;;;1.30;;
21822;SDS011;11074;48.596;9.238;2023-07-29T02:22:12;3.22;;;1.48;;
21822;SDS011;11074;48.596;9.238;2023-07-29T02:24:39;4.57;;;1.73;;
21822;SDS011;11074;48.596;9.238;2023-07-29T02:27:05;4.55;;;1.50;;
21822;SDS011;11074;48.596;9.238;2023-07-29T02:29:31;3.05;;;1.50;;
21822;SDS011;11074;48.596;9.238;2023-07-29T02:31:58;2.17;;;1.38;;
21822;SDS011;11074;48.596;9.238;2023-07-29T02:34:24;2.47;;;1.48;;
21822;SDS011;11074;48.596;9.238;2023-07-29T02:36:50;3.72;;;1.60;;
21822;SDS011;11074;48.596;9.238;2023-07-29T02:39:16;2.53;;;1.35;;
21822;SDS011;11074;48.596;9.238;2023-07-29T02:41:41;2.15;;;1.55;;
21822;SDS011;11074;48.596;9.238;2023-07-29T02:44:07;2.00;;;1.60;;
21822;SDS011;11074;48.596;9.238;2023-07-29T02:46:33;2.03;;;1.50;;
21822;SDS011;11074;48.596;9.238;2023-07-29T02:48:58;2.88;;;1.58;;
21822;SDS011;11074;48.596;9.238;2023-07-29T02:51:24;2.65;;;1.50;;
21822;SDS011;11074;48.596;9.238;2023-07-29T02:53:50;3.53;;;1.65;;
21822;SDS011;11074;48.596;9.238;2023-07-29T02:56:15;3.38;;;1.30;;
21822;SDS011;11074;48.596;9.238;2023-07-29T02:58:41;2.80;;;1.50;;
21822;SDS011;11074;48.596;9.238;2023-07-29T03:01:07;2.00;;;1.38;;
21822;SDS011;11074;48.596;9.238;2023-07-29T03:03:32;3.22;;;1.30;;
21822;SDS011;11074;48.596;9.238;2023-07-29T03:06:02;2.67;;;1.40;;
21822;SDS011;11074;48.596;9.238;2023-07-29T03:08:30;3.92;;;1.20;;
21822;SDS011;11074;48.596;9.238;2023-07-29T03:10:56;1.60;;;1.30;;
21822;SDS011;11074;48.596;9.238;2023-07-29T03:13:23;2.67;;;1.23;;
21822;SDS011;11074;48.596;9.238;2023-07-29T03:15:48;3.47;;;1.23;;
21822;SDS011;11074;48.596;9.238;2023-07-29T03:18:14;1.92;;;1.33;;
21822;SDS011;11074;48.596;9.238;2023-07-29T03:20:41;2.47;;;1.20;;
21822;SDS011;11074;48.596;9.238;2023-07-29T03:23:06;4.47;;;1.48;;
21822;SDS011;11074;48.596;9.238;2023-07-29T03:25:32;1.75;;;1.30;;
21822;SDS011;11074;48.596;9.238;2023-07-29T03:27:58;1.60;;;1.20;;
21822;SDS011;11074;48.596;9.238;2023-07-29T03:30:24;2.30;;;1.25;;
21822;SDS011;11074;48.596;9.238;2023-07-29T03:32:50;3.08;;;1.40;;
21822;SDS011;11074;48.596;9.238;2023-07-29T03:35:15;2.25;;;1.40;;
21822;SDS011;11074;48.596;9.238;2023-07-29T03:37:42;4.70;;;1.45;;
21822;SDS011;11074;48.596;9.238;2023-07-29T03:40:07;2.58;;;1.48;;
21822;SDS011;11074;48.596;9.238;2023-07-29T03:42:34;2.17;;;1.45;;
21822;SDS011;11074;48.596;9.238;2023-07-29T03:45:00;4.22;;;1.60;;
21822;SDS011;11074;48.596;9.238;2023-07-29T03:47:26;2.10;;;1.40;;
21822;SDS011;11074;48.596;9.238;2023-07-29T03:49:52;1.60;;;1.17;;
21822;SDS011;11074;48.596;9.238;2023-07-29T03:52:18;2.55;;;1.20;;
21822;SDS011;11074;48.596;9.238;2023-07-29T03:54:44;2.50;;;1.50;;
21822;SDS011;11074;48.596;9.238;2023-07-29T03:57:10;2.20;;;1.45;;
21822;SDS011;11074;48.596;9.238;2023-07-29T03:59:35;2.45;;;1.55;;
21822;SDS011;11074;48.596;9.238;2023-07-29T04:02:01;3.38;;;1.42;;
21822;SDS011;11074;48.596;9.238;2023-07-29T04:04:27;2.03;;;1.42;;
21822;SDS011;11074;48.596;9.238;2023-07-29T04:06:52;2.28;;;1.52;;
21822;SDS011;11074;48.596;9.238;2023-07-29T04:09:18;4.07;;;1.90;;
21822;SDS011;11074;48.596;9.238;2023-07-29T04:11:43;3.80;;;1.67;;
21822;SDS011;11074;48.596;9.238;2023-07-29T04:14:09;4.47;;;1.80;;
21822;SDS011;11074;48.596;9.238;2023-07-29T04:16:35;3.33;;;1.83;;
21822;SDS011;11074;48.596;9.238;2023-07-29T04:19:00;3.70;;;1.88;;
21822;SDS011;11074;48.596;9.238;2023-07-29T04:21:26;3.72;;;2.03;;
21822;SDS011;11074;48.596;9.238;2023-07-29T04:23:52;3.35;;;1.98;;
21822;SDS011;11074;48.596;9.238;2023-07-29T04:26:17;3.00;;;1.60;;
21822;SDS011;11074;48.596;9.238;2023-07-29T04:28:43;2.75;;;1.45;;
21822;SDS011;11074;48.596;9.238;2023-07-29T04:31:09;2.35;;;1.70;;
21822;SDS011;11074;48.596;9.238;2023-07-29T04:33:34;2.30;;;1.50;;
21822;SDS011;11074;48.596;9.238;2023-07-29T04:36:00;2.38;;;1.50;;
21822;SDS011;11074;48.596;9.238;2023-07-29T04:38:30;1.83;;;1.48;;
21822;SDS011;11074;48.596;9.238;2023-07-29T04:40:58;2.17;;;1.42;;
21822;SDS011;11074;48.596;9.238;2023-07-29T04:43:26;4.68;;;1.40;;
21822;SDS011;11074;48.596;9.238;2023-07-29T04:45:53;3.88;;;1.50;;
21822;SDS011;11074;48.596;9.238;2023-07-29T04:48:19;3.28;;;1.33;;
21822;SDS011;11074;48.596;9.238;2023-07-29T04:50:45;2.47;;;1.30;;
21822;SDS011;11074;48.596;9.238;2023-07-29T04:53:11;3.13;;;1.30;;
21822;SDS011;11074;48.596;9.238;2023-07-29T04:55:36;2.28;;;1.30;;
21822;SDS011;11074;48.596;9.238;2023-07-29T04:58:02;3.45;;;1.20;;
21822;SDS011;11074;48.596;9.238;2023-07-29T05:00:27;2.47;;;1.45;;
21822;SDS011;11074;48.596;9.238;2023-07-29T05:02:53;3.10;;;1.80;;
21822;SDS011;11074;48.596;9.238;2023-07-29T05:05:19;3.33;;;1.58;;
21822;SDS011;11074;48.596;9.238;2023-07-29T05:07:44;3.22;;;1.40;;
21822;SDS011;11074;48.596;9.238;2023-07-29T05:10:10;2.25;;;1.20;;
21822;SDS011;11074;48.596;9.238;2023-07-29T05:12:36;2.95;;;1.38;;
21822;SDS011;11074;48.596;9.238;2023-07-29T05:15:05;2.08;;;1.15;;
21822;SDS011;11074;48.596;9.238;2023-07-29T05:17:31;2.50;;;1.38;;
21822;SDS011;11074;48.596;9.238;2023-07-29T05:19:57;5.60;;;3.00;;
21822;SDS011;11074;48.596;9.238;2023-07-29T05:22:22;5.82;;;2.78;;
21822;SDS011;11074;48.596;9.238;2023-07-29T05:24:48;4.45;;;2.53;;
21822;SDS011;11074;48.596;9.238;2023-07-29T05:27:14;4.00;;;1.88;;
21822;SDS011;11074;48.596;9.238;2023-07-29T05:29:39;5.60;;;2.08;;
21822;SDS011;11074;48.596;9.238;2023-07-29T05:32:05;2.30;;;1.50;;
21822;SDS011;11074;48.596;9.238;2023-07-29T05:34:31;5.32;;;1.63;;
21822;SDS011;11074;48.596;9.238;2023-07-29T05:36:56;3.13;;;1.55;;
21822;SDS011;11074;48.596;9.238;2023-07-29T05:39:22;3.25;;;1.58;;
21822;SDS011;11074;48.596;9.238;2023-07-29T05:41:49;3.47;;;1.75;;
21822;SDS011;11074;48.596;9.238;2023-07-29T05:44:14;4.20;;;1.88;;
21822;SDS011;11074;48.596;9.238;2023-07-29T05:46:40;3.00;;;1.25;;
21822;SDS011;11074;48.596;9.238;2023-07-29T05:49:06;4.35;;;1.50;;
21822;SDS011;11074;48.596;9.238;2023-07-29T05:51:31;3.63;;;1.50;;
21822;SDS011;11074;48.596;9.238;2023-07-29T05:53:57;7.28;;;1.80;;
21822;SDS011;11074;48.596;9.238;2023-07-29T05:56:22;3.63;;;1.60;;
21822;SDS011;11074;48.596;9.238;2023-07-29T05:58:48;4.20;;;1.70;;
21822;SDS011;11074;48.596;9.238;2023-07-29T06:01:14;2.83;;;1.38;;
21822;SDS011;11074;48.596;9.238;2023-07-29T06:03:40;2.88;;;1.40;;
21822;SDS011;11074;48.596;9.238;2023-07-29T06:06:06;3.45;;;1.60;;
21822;SDS011;11074;48.596;9.238;2023-07-29T06:08:33;4.72;;;1.70;;
21822;SDS011;11074;48.596;9.238;2023-07-29T06:10:59;3.17;;;1.10;;
21822;SDS011;11074;48.596;9.238;2023-07-29T06:13:25;3.13;;;1.50;;
21822;SDS011;11074;48.596;9.238;2023-07-29T06:15:51;2.92;;;1.38;;
21822;SDS011;11074;48.596;9.238;2023-07-29T06:18:16;2.58;;;1.45;;
21822;SDS011;11074;48.596;9.238;2023-07-29T06:20:42;3.75;;;1.50;;
21822;SDS011;11074;48.596;9.238;2023-07-29T06:23:08;2.85;;;1.33;;
21822;SDS011;11074;48.596;9.238;2023-07-29T06:25:34;4.20;;;1.10;;
21822;SDS011;11074;48.596;9.238;2023-07-29T06:27:59;2.90;;;1.30;;
21822;SDS011;11074;48.596;9.238;2023-07-29T06:30:25;2.00;;;1.33;;
21822;SDS011;11074;48.596;9.238;2023-07-29T06:32:51;2.50;;;1.25;;
21822;SDS011;11074;48.596;9.238;2023-07-29T06:35:16;2.42;;;1.50;;
21822;SDS011;11074;48.596;9.238;2023-07-29T06:37:42;2.83;;;1.55;;
21822;SDS011;11074;48.596;9.238;2023-07-29T06:40:08;3.08;;;1.58;;
21822;SDS011;11074;48.596;9.238;2023-07-29T06:42:34;2.30;;;1.55;;
21822;SDS011;11074;48.596;9.238;2023-07-29T06:44:59;2.53;;;1.40;;
21822;SDS011;11074;48.596;9.238;2023-07-29T06:47:25;2.28;;;1.25;;
21822;SDS011;11074;48.596;9.238;2023-07-29T06:49:51;4.07;;;1.50;;
21822;SDS011;11074;48.596;9.238;2023-07-29T06:52:18;2.20;;;1.45;;
21822;SDS011;11074;48.596;9.238;2023-07-29T06:54:44;5.15;;;1.63;;
21822;SDS011;11074;48.596;9.238;2023-07-29T06:57:10;5.15;;;1.38;;
21822;SDS011;11074;48.596;9.238;2023-07-29T06:59:35;4.20;;;1.70;;
21822;SDS011;11074;48.596;9.238;2023-07-29T07:02:01;2.28;;;1.70;;
21822;SDS011;11074;48.596;9.238;2023-07-29T07:04:27;2.90;;;1.85;;
21822;SDS011;11074;48.596;9.238;2023-07-29T07:06:52;2.58;;;2.00;;
21822;SDS011;11074;48.596;9.238;2023-07-29T07:09:19;3.67;;;1.90;;
21822;SDS011;11074;48.596;9.238;2023-07-29T07:11:44;4.97;;;2.13;;
21822;SDS011;11074;48.596;9.238;2023-07-29T07:14:10;6.18;;;2.67;;
21822;SDS011;11074;48.596;9.238;2023-07-29T07:16:35;5.22;;;2.40;;
21822;SDS011;11074;48.596;9.238;2023-07-29T07:19:04;6.05;;;2.00;;
21822;SDS011;11074;48.596;9.238;2023-07-29T07:21:30;3.55;;;2.30;;
21822;SDS011;11074;48.596;9.238;2023-07-29T07:23:57;4.68;;;2.40;;
21822;SDS011;11074;48.596;9.238;2023-07-29T07:26:23;5.18;;;2.75;;
21822;SDS011;11074;48.596;9.238;2023-07-29T07:28:49;4.22;;;2.40;;
21822;SDS011;11074;48.596;9.238;2023-07-29T07:31:16;4.65;;;2.95;;
21822;SDS011;11074;48.596;9.238;2023-07-29T07:33:42;5.40;;;3.30;;
21822;SDS011;11074;48.596;9.238;2023-07-29T07:36:07;4.50;;;3.33;;
21822;SDS011;11074;48.596;9.238;2023-07-29T07:38:33;7.78;;;3.15;;
21822;SDS011;11074;48.596;9.238;2023-07-29T07:40:59;5.13;;;3.30;;
21822;SDS011;11074;48.596;9.238;2023-07-29T07:43:25;5.93;;;3.42;;
21822;SDS011;11074;48.596;9.238;2023-07-29T07:45:51;4.13;;;3.05;;
21822;SDS011;11074;48.596;9.238;2023-07-29T07:48:23;4.20;;;2.50;;
21822;SDS011;11074;48.596;9.238;2023-07-29T07:50:49;4.45;;;2.25;;
21822;SDS011;11074;48.596;9.238;2023-07-29T07:53:15;5.47;;;2.72;;
21822;SDS011;11074;48.596;9.238;2023-07-29T07:55:40;4.32;;;2.50;;
21822;SDS011;11074;48.596;9.238;2023-07-29T07:58:06;6.47;;;2.80;;
21822;SDS011;11074;48.596;9.238;2023-07-29T08:00:32;4.03;;;1.77;;
21822;SDS011;11074;48.596;9.238;2023-07-29T08:02:57;5.47;;;2.00;;
21822;SDS011;11074;48.596;9.238;2023-07-29T08:05:23;3.38;;;2.22;;
21822;SDS011;11074;48.596;9.238;2023-07-29T08:07:49;4.78;;;2.47;;
21822;SDS011;11074;48.596;9.238;2023-07-29T08:10:14;4.70;;;2.30;;
21822;SDS011;11074;48.596;9.238;2023-07-29T08:12:40;6.38;;;2.30;;
21822;SDS011;11074;48.596;9.238;2023-07-29T08:15:06;5.13;;;2.28;;
21822;SDS011;11074;48.596;9.238;2023-07-29T08:17:32;3.47;;;2.45;;
21822;SDS011;11074;48.596;9.238;2023-07-29T08:19:58;6.63;;;2.40;;
21822;SDS011;11074;48.596;9.238;2023-07-29T08:22:23;3.42;;;2.15;;
21822;SDS011;11074;48.596;9.238;2023-07-29T08:24:49;3.90;;;2.28;;
21822;SDS011;11074;48.596;9.238;2023-07-29T08:27:14;4.00;;;2.35;;
21822;SDS011;11074;48.596;9.238;2023-07-29T08:29:40;5.00;;;2.40;;
21822;SDS011;11074;48.596;9.238;2023-07-29T08:32:06;2.50;;;2.03;;
21822;SDS011;11074;48.596;9.238;2023-07-29T08:34:32;4.20;;;1.90;;
21822;SDS011;11074;48.596;9.238;2023-07-29T08:36:57;4.50;;;2.28;;
21822;SDS011;11074;48.596;9.238;2023-07-29T08:39:23;3.15;;;2.15;;
21822;SDS011;11074;48.596;9.238;2023-07-29T08:42:00;4.78;;;2.10;;
21822;SDS011;11074;48.596;9.238;2023-07-29T08:44:35;3.42;;;1.80;;
21822;SDS011;11074;48.596;9.238;2023-07-29T08:47:06;3.10;;;2.40;;
21822;SDS011;11074;48.596;9.238;2023-07-29T08:49:31;3.30;;;2.10;;
21822;SDS011;11074;48.596;9.238;2023-07-29T08:51:58;4.97;;;1.88;;
21822;SDS011;11074;48.596;9.238;2023-07-29T08:54:26;3.58;;;2.10;;
21822;SDS011;11074;48.596;9.238;2023-07-29T08:56:52;3.47;;;1.90;;
21822;SDS011;11074;48.596;9.238;2023-07-29T08:59:18;3.95;;;2.10;;
21822;SDS011;11074;48.596;9.238;2023-07-29T09:01:44;3.20;;;1.90;;
21822;SDS011;11074;48.596;9.238;2023-07-29T09:04:12;3.35;;;2.17;;
21822;SDS011;11074;48.596;9.238;2023-07-29T09:06:37;3.20;;;2.05;;
21822;SDS011;11074;48.596;9.238;2023-07-29T09:09:08;3.35;;;1.70;;
21822;SDS011;11074;48.596;9.238;2023-07-29T09:11:34;3.35;;;1.90;;
21822;SDS011;11074;48.596;9.238;2023-07-29T09:14:00;8.50;;;3.35;;
21822;SDS011;11074;48.596;9.238;2023-07-29T09:16:26;4.85;;;3.17;;
21822;SDS011;11074;48.596;9.238;2023-07-29T09:18:52;3.83;;;1.83;;
21822;SDS011;11074;48.596;9.238;2023-07-29T09:21:22;3.63;;;2.05;;
21822;SDS011;11074;48.596;9.238;2023-07-29T09:23:53;2.95;;;2.00;;
21822;SDS011;11074;48.596;9.238;2023-07-29T09:26:26;2.47;;;1.60;;
21822;SDS011;11074;48.596;9.238;2023-07-29T09:28:56;3.75;;;1.95;;
21822;SDS011;11074;48.596;9.238;2023-07-29T09:31:25;2.35;;;1.65;;
21822;SDS011;11074;48.596;9.238;2023-07-29T09:33:56;4.13;;;1.75;;
21822;SDS011;11074;48.596;9.238;2023-07-29T09:36:23;3.15;;;1.60;;
21822;SDS011;11074;48.596;9.238;2023-07-29T09:38:53;2.20;;;1.50;;
21822;SDS011;11074;48.596;9.238;2023-07-29T09:41:25;2.35;;;1.70;;
21822;SDS011;11074;48.596;9.238;2023-07-29T09:43:59;2.05;;;1.67;;
21822;SDS011;11074;48.596;9.238;2023-07-29T09:49:03;2.63;;;1.70;;
21822;SDS011;11074;48.596;9.238;2023-07-29T09:51:30;2.17;;;1.80;;
21822;SDS011;11074;48.596;9.238;2023-07-29T09:53:57;3.08;;;1.65;;
21822;SDS011;11074;48.596;9.238;2023-07-29T09:56:27;3.88;;;1.90;;
21822;SDS011;11074;48.596;9.238;2023-07-29T09:58:55;7.18;;;2.10;;
21822;SDS011;11074;48.596;9.238;2023-07-29T10:01:22;2.13;;;1.55;;
21822;SDS011;11074;48.596;9.238;2023-07-29T10:03:49;3.13;;;1.90;;
21822;SDS011;11074;48.596;9.238;2023-07-29T10:06:15;3.67;;;2.03;;
21822;SDS011;11074;48.596;9.238;2023-07-29T10:08:42;2.35;;;1.98;;
21822;SDS011;11074;48.596;9.238;2023-07-29T10:11:09;4.13;;;2.40;;
21822;SDS011;11074;48.596;9.238;2023-07-29T10:13:36;3.33;;;2.00;;
21822;SDS011;11074;48.596;9.238;2023-07-29T10:16:03;3.58;;;1.90;;
21822;SDS011;11074;48.596;9.238;2023-07-29T10:18:30;3.13;;;2.20;;
21822;SDS011;11074;48.596;9.238;2023-07-29T10:20:58;3.22;;;2.17;;
21822;SDS011;11074;48.596;9.238;2023-07-29T10:23:26;2.97;;;2.40;;
21822;SDS011;11074;48.596;9.238;2023-07-29T10:26:03;3.03;;;2.00;;
21822;SDS011;11074;48.596;9.238;2023-07-29T10:28:34;2.25;;;1.92;;
21822;SDS011;11074;48.596;9.238;2023-07-29T10:31:08;3.22;;;2.20;;
21822;SDS011;11074;48.596;9.238;2023-07-29T10:33:35;3.28;;;2.20;;
21822;SDS011;11074;48.596;9.238;2023-07-29T10:36:03;2.60;;;1.75;;
21822;SDS011;11074;48.596;9.238;2023-07-29T10:38:30;2.38;;;1.98;;
21822;SDS011;11074;48.596;9.238;2023-07-29T10:40:56;2.90;;;1.90;;
21822;SDS011;11074;48.596;9.238;2023-07-29T10:45:59;4.38;;;2.30;;
21822;SDS011;11074;48.596;9.238;2023-07-29T10:54:08;3.33;;;2.00;;
21822;SDS011;11074;48.596;9.238;2023-07-29T10:56:43;2.35;;;1.98;;
21822;SDS011;11074;48.596;9.238;2023-07-29T11:01:43;3.40;;;2.10;;
21822;SDS011;11074;48.596;9.238;2023-07-29T11:04:26;2.20;;;1.90;;
21822;SDS011;11074;48.596;9.238;2023-07-29T11:15:26;2.58;;;1.98;;
21822;SDS011;11074;48.596;9.238;2023-07-29T11:20:27;3.45;;;1.85;;
21822;SDS011;11074;48.596;9.238;2023-07-29T11:22:56;4.57;;;1.73;;
21822;SDS011;11074;48.596;9.238;2023-07-29T11:25:27;2.75;;;2.03;;
21822;SDS011;11074;48.596;9.238;2023-07-29T11:27:56;4.43;;;2.20;;
21822;SDS011;11074;48.596;9.238;2023-07-29T11:30:24;3.13;;;2.10;;
21822;SDS011;11074;48.596;9.238;2023-07-29T11:32:52;3.30;;;1.83;;
21822;SDS011;11074;48.596;9.238;2023-07-29T11:35:20;3.00;;;1.80;;
21822;SDS011;11074;48.596;9.238;2023-07-29T11:37:50;3.53;;;1.77;;
21822;SDS011;11074;48.596;9.238;2023-07-29T11:40:17;4.43;;;2.22;;
21822;SDS011;11074;48.596;9.238;2023-07-29T11:42:45;2.85;;;1.77;;
21822;SDS011;11074;48.596;9.238;2023-07-29T11:45:13;5.68;;;1.85;;
21822;SDS011;11074;48.596;9.238;2023-07-29T11:47:40;3.00;;;1.88;;
21822;SDS011;11074;48.596;9.238;2023-07-29T11:50:07;2.78;;;2.05;;
21822;SDS011;11074;48.596;9.238;2023-07-29T11:52:36;2.58;;;1.80;;
21822;SDS011;11074;48.596;9.238;2023-07-29T11:55:04;3.40;;;1.80;;
21822;SDS011;11074;48.596;9.238;2023-07-29T11:57:31;3.05;;;1.63;;
21822;SDS011;11074;48.596;9.238;2023-07-29T12:00:06;2.67;;;1.95;;
21822;SDS011;11074;48.596;9.238;2023-07-29T12:02:38;3.60;;;2.20;;
21822;SDS011;11074;48.596;9.238;2023-07-29T12:05:09;3.05;;;1.90;;
21822;SDS011;11074;48.596;9.238;2023-07-29T12:07:39;2.72;;;1.98;;
21822;SDS011;11074;48.596;9.238;2023-07-29T12:10:07;4.05;;;1.80;;
21822;SDS011;11074;48.596;9.238;2023-07-29T12:12:38;2.67;;;1.90;;
21822;SDS011;11074;48.596;9.238;2023-07-29T12:15:22;3.33;;;2.05;;
21822;SDS011;11074;48.596;9.238;2023-07-29T12:17:52;4.03;;;1.80;;
21822;SDS011;11074;48.596;9.238;2023-07-29T12:20:21;2.60;;;1.80;;
21822;SDS011;11074;48.596;9.238;2023-07-29T12:22:51;3.60;;;1.98;;
21822;SDS011;11074;48.596;9.238;2023-07-29T12:25:27;1.95;;;1.60;;
21822;SDS011;11074;48.596;9.238;2023-07-29T12:27:54;2.00;;;1.65;;
21822;SDS011;11074;48.596;9.238;2023-07-29T12:30:20;2.40;;;1.90;;
21822;SDS011;11074;48.596;9.238;2023-07-29T12:32:47;2.50;;;1.95;;
21822;SDS011;11074;48.596;9.238;2023-07-29T12:35:13;2.35;;;1.85;;
21822;SDS011;11074;48.596;9.238;2023-07-29T12:37:39;3.17;;;2.25;;
21822;SDS011;11074;48.596;9.238;2023-07-29T12:40:08;24.98;;;16.58;;
21822;SDS011;11074;48.596;9.238;2023-07-29T12:42:50;16.48;;;11.00;;
21822;SDS011;11074;48.596;9.238;2023-07-29T12:45:17;11.05;;;7.95;;
21822;SDS011;11074;48.596;9.238;2023-07-29T12:47:43;8.27;;;6.15;;
21822;SDS011;11074;48.596;9.238;2023-07-29T12:50:09;8.15;;;5.80;;
21822;SDS011;11074;48.596;9.238;2023-07-29T12:52:35;7.00;;;5.38;;
21822;SDS011;11074;48.596;9.238;2023-07-29T12:55:00;5.05;;;3.72;;
21822;SDS011;11074;48.596;9.238;2023-07-29T12:57:26;4.07;;;2.80;;
21822;SDS011;11074;48.596;9.238;2023-07-29T12:59:52;3.25;;;2.25;;
21822;SDS011;11074;48.596;9.238;2023-07-29T13:02:17;4.28;;;2.88;;
21822;SDS011;11074;48.596;9.238;2023-07-29T13:04:43;3.67;;;3.03;;
21822;SDS011;11074;48.596;9.238;2023-07-29T13:07:08;4.93;;;4.15;;
21822;SDS011;11074;48.596;9.238;2023-07-29T13:09:34;5.13;;;3.20;;
21822;SDS011;11074;48.596;9.238;2023-07-29T13:11:59;4.75;;;3.58;;
21822;SDS011;11074;48.596;9.238;2023-07-29T13:14:25;10.43;;;5.93;;
21822;SDS011;11074;48.596;9.238;2023-07-29T13:16:51;15.52;;;10.48;;
21822;SDS011;11074;48.596;9.238;2023-07-29T13:19:18;36.50;;;23.48;;
21822;SDS011;11074;48.596;9.238;2023-07-29T13:21:43;49.15;;;27.60;;
21822;SDS011;11074;48.596;9.238;2023-07-29T13:24:09;37.17;;;24.48;;
21822;SDS011;11074;48.596;9.238;2023-07-29T13:26:35;30.08;;;18.63;;
21822;SDS011;11074;48.596;9.238;2023-07-29T13:29:00;14.73;;;9.50;;
21822;SDS011;11074;48.596;9.238;2023-07-29T13:31:26;24.35;;;15.50;;
21822;SDS011;11074;48.596;9.238;2023-07-29T13:33:51;29.73;;;18.00;;
21822;SDS011;11074;48.596;9.238;2023-07-29T13:36:17;19.63;;;14.27;;
21822;SDS011;11074;48.596;9.238;2023-07-29T13:38:43;22.85;;;15.85;;
21822;SDS011;11074;48.596;9.238;2023-07-29T13:41:08;18.60;;;15.48;;
21822;SDS011;11074;48.596;9.238;2023-07-29T13:43:34;13.18;;;11.35;;
21822;SDS011;11074;48.596;9.238;2023-07-29T13:45:59;10.10;;;8.80;;
21822;SDS011;11074;48.596;9.238;2023-07-29T13:48:25;11.32;;;7.60;;
21822;SDS011;11074;48.596;9.238;2023-07-29T13:50:51;5.65;;;3.83;;
21822;SDS011;11074;48.596;9.238;2023-07-29T13:53:17;4.20;;;3.17;;
21822;SDS011;11074;48.596;9.238;2023-07-29T13:55:42;4.30;;;3.13;;
21822;SDS011;11074;48.596;9.238;2023-07-29T13:58:08;4.93;;;3.15;;
21822;SDS011;11074;48.596;9.238;2023-07-29T14:00:34;8.30;;;5.47;;
21822;SDS011;11074;48.596;9.238;2023-07-29T14:02:59;7.40;;;5.93;;
21822;SDS011;11074;48.596;9.238;2023-07-29T14:05:25;9.68;;;7.38;;
21822;SDS011;11074;48.596;9.238;2023-07-29T14:07:51;8.50;;;6.47;;
21822;SDS011;11074;48.596;9.238;2023-07-29T14:10:16;8.95;;;6.35;;
21822;SDS011;11074;48.596;9.238;2023-07-29T14:12:42;4.95;;;4.18;;
21822;SDS011;11074;48.596;9.238;2023-07-29T14:15:08;7.13;;;5.13;;
21822;SDS011;11074;48.596;9.238;2023-07-29T14:17:33;6.18;;;4.75;;
21822;SDS011;11074;48.596;9.238;2023-07-29T14:19:59;7.47;;;5.10;;
21822;SDS011;11074;48.596;9.238;2023-07-29T14:22:25;7.35;;;6.20;;
21822;SDS011;11074;48.596;9.238;2023-07-29T14:24:50;7.43;;;6.10;;
21822;SDS011;11074;48.596;9.238;2023-07-29T14:27:16;6.72;;;5.38;;
21822;SDS011;11074;48.596;9.238;2023-07-29T14:29:41;6.60;;;5.20;;
21822;SDS011;11074;48.596;9.238;2023-07-29T14:32:08;6.25;;;5.05;;
21822;SDS011;11074;48.596;9.238;2023-07-29T14:34:33;5.20;;;4.30;;
21822;SDS011;11074;48.596;9.238;2023-07-29T14:36:59;3.25;;;2.72;;
21822;SDS011;11074;48.596;9.238;2023-07-29T14:39:24;2.90;;;2.50;;
21822;SDS011;11074;48.596;9.238;2023-07-29T14:41:50;4.88;;;3.72;;
21822;SDS011;11074;48.596;9.238;2023-07-29T14:44:16;5.32;;;4.45;;
21822;SDS011;11074;48.596;9.238;2023-07-29T14:46:41;4.75;;;3.63;;
21822;SDS011;11074;48.596;9.238;2023-07-29T14:49:07;5.20;;;3.42;;
21822;SDS011;11074;48.596;9.238;2023-07-29T14:51:32;6.18;;;3.80;;
21822;SDS011;11074;48.596;9.238;2023-07-29T14:53:59;4.78;;;3.10;;
21822;SDS011;11074;48.596;9.238;2023-07-29T14:56:25;3.78;;;2.80;;
21822;SDS011;11074;48.596;9.238;2023-07-29T14:58:50;4.75;;;2.50;;
21822;SDS011;11074;48.596;9.238;2023-07-29T15:01:16;4.10;;;2.50;;
21822;SDS011;11074;48.596;9.238;2023-07-29T15:03:41;2.60;;;2.00;;
21822;SDS011;11074;48.596;9.238;2023-07-29T15:06:07;3.45;;;2.28;;
21822;SDS011;11074;48.596;9.238;2023-07-29T15:08:33;3.35;;;1.90;;
21822;SDS011;11074;48.596;9.238;2023-07-29T15:10:58;2.75;;;2.28;;
21822;SDS011;11074;48.596;9.238;2023-07-29T15:13:24;3.38;;;2.17;;
21822;SDS011;11074;48.596;9.238;2023-07-29T15:15:49;2.40;;;1.83;;